createdAt,value
2018-12-16T00:01:52.830Z,98109.88
2018-12-16T00:04:24.329Z,98100.03
2018-12-16T00:06:55.819Z,98091.56
2018-12-16T00:09:27.332Z,98087.03
2018-12-16T00:11:58.965Z,98084.92
2018-12-16T00:14:30.534Z,98079.13
2018-12-16T00:17:02.078Z,98082.73
2018-12-16T00:19:33.626Z,98082.63
2018-12-16T00:22:05.366Z,98075.01
2018-12-16T00:24:36.947Z,98070.51
2018-12-16T00:27:13.856Z,98057.86
2018-12-16T00:29:45.276Z,98052.88
2018-12-16T00:32:16.895Z,98040.69
2018-12-16T00:34:48.400Z,98030.48
2018-12-16T00:37:20.004Z,98019.86
2018-12-16T00:39:51.500Z,98022.77
2018-12-16T00:42:23.066Z,98021.66
2018-12-16T00:44:54.508Z,98021.06
2018-12-16T00:47:26.033Z,98019.15
2018-12-16T00:49:57.520Z,98023.39
2018-12-16T00:52:29.121Z,98025.41
2018-12-16T00:55:00.614Z,98031.91
2018-12-16T00:57:32.344Z,98035.78
2018-12-16T01:00:06.007Z,98038.39
2018-12-16T01:02:43.225Z,98047.05
2018-12-16T01:05:15.319Z,98045.44
2018-12-16T01:07:46.801Z,98050.66
2018-12-16T01:10:18.499Z,98049.28
2018-12-16T01:12:50.009Z,98048.40
2018-12-16T01:15:21.561Z,98049.49
2018-12-16T01:17:53.017Z,98049.68
2018-12-16T01:20:24.616Z,98044.11
2018-12-16T01:22:56.116Z,98034.70
2018-12-16T01:25:27.716Z,98042.06
2018-12-16T01:27:59.222Z,98028.51
2018-12-16T01:30:30.836Z,98022.91
2018-12-16T01:33:02.336Z,98008.12
2018-12-16T01:35:33.878Z,98004.05
2018-12-16T01:38:05.336Z,97988.83
2018-12-16T01:40:36.931Z,97975.48
2018-12-16T01:43:08.449Z,97965.78
2018-12-16T01:45:40.043Z,97950.64
2018-12-16T01:48:11.560Z,97940.96
2018-12-16T01:50:43.143Z,97922.94
2018-12-16T01:53:14.689Z,97915.77
2018-12-16T01:55:46.359Z,97909.00
2018-12-16T01:58:17.859Z,97901.19
2018-12-16T02:00:49.468Z,97898.41
2018-12-16T02:03:20.985Z,97899.03
2018-12-16T02:05:52.581Z,97894.30
2018-12-16T02:08:24.199Z,97889.56
2018-12-16T02:10:55.832Z,97885.05
2018-12-16T02:13:27.257Z,97884.51
2018-12-16T02:15:59.044Z,97881.14
2018-12-16T02:18:30.656Z,97876.16
2018-12-16T02:21:02.161Z,97881.41
2018-12-16T02:23:33.718Z,97897.06
2018-12-16T02:26:05.168Z,97908.73
2018-12-16T02:28:36.770Z,97910.11
2018-12-16T02:31:08.277Z,97909.80
2018-12-16T02:33:39.890Z,97898.13
2018-12-16T02:36:11.382Z,97896.42
2018-12-16T02:38:42.991Z,97896.96
2018-12-16T02:41:14.484Z,97904.03
2018-12-16T02:43:46.659Z,97900.89
2018-12-16T02:46:18.258Z,97899.89
2018-12-16T02:48:49.769Z,97897.19
2018-12-16T02:51:21.366Z,97891.53
2018-12-16T02:53:52.872Z,97889.95
2018-12-16T02:56:24.474Z,97894.88
2018-12-16T02:58:55.978Z,97889.30
2018-12-16T03:01:27.628Z,97889.95
2018-12-16T03:03:59.044Z,97887.70
2018-12-16T03:06:30.634Z,97890.02
2018-12-16T03:09:02.048Z,97887.08
2018-12-16T03:11:33.641Z,97893.78
2018-12-16T03:14:05.252Z,97890.80
2018-12-16T03:16:36.775Z,97884.36
2018-12-16T03:19:08.364Z,97882.63
2018-12-16T03:21:39.871Z,97881.91
2018-12-16T03:24:11.484Z,97880.39
2018-12-16T03:26:42.970Z,97876.02
2018-12-16T03:29:14.573Z,97870.91
2018-12-16T03:31:46.082Z,97864.37
2018-12-16T03:34:17.617Z,97869.41
2018-12-16T03:36:49.086Z,97875.53
2018-12-16T03:39:20.505Z,97876.50
2018-12-16T03:41:51.989Z,97865.73
2018-12-16T03:44:23.592Z,97863.53
2018-12-16T03:46:55.089Z,97857.95
2018-12-16T03:49:26.697Z,97852.92
2018-12-16T03:51:58.277Z,97854.80
2018-12-16T03:54:29.854Z,97846.45
2018-12-16T03:57:01.353Z,97834.27
2018-12-16T03:59:32.864Z,97820.31
2018-12-16T04:02:04.293Z,97812.06
2018-12-16T04:04:35.861Z,97814.75
2018-12-16T04:07:07.298Z,97804.47
2018-12-16T04:09:38.955Z,97801.17
2018-12-16T04:12:12.537Z,97793.59
2018-12-16T04:14:44.038Z,97778.66
2018-12-16T04:17:15.431Z,97772.13
2018-12-16T04:19:47.031Z,97770.31
2018-12-16T04:22:18.634Z,97767.20
2018-12-16T04:24:50.145Z,97765.22
2018-12-16T04:27:21.744Z,97757.45
2018-12-16T04:29:53.289Z,97760.72
2018-12-16T04:32:24.896Z,97758.79
2018-12-16T04:34:56.352Z,97756.55
2018-12-16T04:37:27.895Z,97738.73
2018-12-16T04:39:59.363Z,97741.71
2018-12-16T04:42:30.909Z,97743.55
2018-12-16T04:45:02.375Z,97749.56
2018-12-16T04:47:33.969Z,97754.76
2018-12-16T04:50:06.015Z,97757.02
2018-12-16T04:52:37.630Z,97755.66
2018-12-16T04:55:09.116Z,97752.58
2018-12-16T04:57:40.837Z,97738.55
2018-12-16T05:00:12.549Z,97729.18
2018-12-16T05:02:44.162Z,97722.23
2018-12-16T05:05:15.583Z,97720.33
2018-12-16T05:07:47.917Z,97726.62
2018-12-16T05:10:30.533Z,97723.27
2018-12-16T05:13:02.153Z,97715.98
2018-12-16T05:15:33.590Z,97708.50
2018-12-16T05:18:05.358Z,97713.11
2018-12-16T05:20:36.872Z,97699.20
2018-12-16T05:23:08.496Z,97707.16
2018-12-16T05:25:39.875Z,97715.89
2018-12-16T05:28:11.480Z,97716.00
2018-12-16T05:30:43.085Z,97712.69
2018-12-16T05:33:14.584Z,97704.11
2018-12-16T05:35:46.125Z,97694.98
2018-12-16T05:38:17.556Z,97698.43
2018-12-16T05:40:49.130Z,97704.59
2018-12-16T05:43:20.689Z,97704.73
2018-12-16T05:45:52.236Z,97705.55
2018-12-16T05:48:23.664Z,97706.53
2018-12-16T05:50:55.249Z,97703.98
2018-12-16T05:53:26.869Z,97700.77
2018-12-16T05:55:58.372Z,97698.59
2018-12-16T05:58:29.879Z,97697.63
2018-12-16T06:01:01.496Z,97691.04
2018-12-16T06:03:33.084Z,97693.80
2018-12-16T06:06:04.607Z,97678.84
2018-12-16T06:08:36.185Z,97670.88
2018-12-16T06:11:07.697Z,97670.91
2018-12-16T06:13:39.302Z,97673.38
2018-12-16T06:16:10.809Z,97668.41
2018-12-16T06:18:42.407Z,97670.30
2018-12-16T06:21:13.868Z,97662.42
2018-12-16T06:23:45.544Z,97658.38
2018-12-16T06:26:16.978Z,97667.52
2018-12-16T06:28:48.658Z,97664.28
2018-12-16T06:31:20.092Z,97666.89
2018-12-16T06:33:51.658Z,97667.91
2018-12-16T06:36:23.085Z,97664.69
2018-12-16T06:38:54.670Z,97664.14
2018-12-16T06:41:26.279Z,97672.02
2018-12-16T06:43:57.785Z,97667.37
2018-12-16T06:46:29.440Z,97670.61
2018-12-16T06:49:00.856Z,97679.69
2018-12-16T06:51:32.444Z,97683.30
2018-12-16T06:54:04.062Z,97687.41
2018-12-16T06:56:35.561Z,97680.98
2018-12-16T06:59:07.159Z,97671.40
2018-12-16T07:01:38.667Z,97654.83
2018-12-16T07:04:10.266Z,97654.61
2018-12-16T07:06:41.839Z,97642.19
2018-12-16T07:09:13.525Z,97648.19
2018-12-16T07:11:45.041Z,97643.95
2018-12-16T07:14:16.641Z,97648.59
2018-12-16T07:16:48.053Z,97652.61
2018-12-16T07:19:19.652Z,97652.59
2018-12-16T07:21:51.135Z,97650.31
2018-12-16T07:24:22.778Z,97655.48
2018-12-16T07:26:54.400Z,97650.22
2018-12-16T07:29:25.949Z,97642.22
2018-12-16T07:31:57.416Z,97629.54
2018-12-16T07:34:28.978Z,97615.37
2018-12-16T07:37:00.360Z,97610.70
2018-12-16T07:39:31.974Z,97606.77
2018-12-16T07:42:03.581Z,97606.77
2018-12-16T07:44:35.086Z,97604.70
2018-12-16T07:47:06.571Z,97610.66
2018-12-16T07:49:38.185Z,97614.77
2018-12-16T07:52:09.796Z,97618.50
2018-12-16T07:54:41.297Z,97611.37
2018-12-16T07:57:12.908Z,97613.88
2018-12-16T07:59:44.767Z,97619.13
2018-12-16T08:02:16.361Z,97604.55
2018-12-16T08:04:48.760Z,97610.94
2018-12-16T08:07:20.164Z,97608.58
2018-12-16T08:09:51.746Z,97599.87
2018-12-16T08:12:23.355Z,97610.89
2018-12-16T08:14:54.861Z,97623.60
2018-12-16T08:17:26.317Z,97625.31
2018-12-16T08:19:57.765Z,97606.92
2018-12-16T08:22:29.171Z,97604.86
2018-12-16T08:25:00.777Z,97607.26
2018-12-16T08:27:32.165Z,97620.19
2018-12-16T08:30:03.770Z,97622.48
2018-12-16T08:32:35.379Z,97622.22
2018-12-16T08:35:07.416Z,97625.61
2018-12-16T08:37:39.023Z,97634.68
2018-12-16T08:40:10.992Z,97621.30
2018-12-16T08:42:42.414Z,97620.20
2018-12-16T08:45:14.111Z,97614.27
2018-12-16T08:47:45.715Z,97624.70
2018-12-16T08:50:17.219Z,97618.18
2018-12-16T08:52:48.766Z,97630.41
2018-12-16T08:55:20.216Z,97633.48
2018-12-16T08:57:51.769Z,97632.48
2018-12-16T09:00:23.243Z,97631.56
2018-12-16T09:02:54.833Z,97640.09
2018-12-16T09:05:26.151Z,97637.24
2018-12-16T09:07:57.561Z,97640.69
2018-12-16T09:10:34.130Z,97649.66
2018-12-16T09:13:02.734Z,97656.38
2018-12-16T09:15:34.205Z,97651.39
2018-12-16T09:18:05.642Z,97647.26
2018-12-16T09:20:37.730Z,97655.15
2018-12-16T09:23:22.531Z,97655.86
2018-12-16T09:26:18.052Z,97658.70
2018-12-16T09:29:02.737Z,97657.78
2018-12-16T09:31:53.234Z,97647.31
2018-12-16T09:34:32.822Z,97644.16
2018-12-16T09:37:11.555Z,97644.72
2018-12-16T09:39:53.494Z,97646.34
2018-12-16T09:42:34.852Z,97649.52
2018-12-16T09:45:16.308Z,97649.31
2018-12-16T09:47:52.662Z,97642.19
2018-12-16T09:50:29.828Z,97636.87
2018-12-16T09:53:07.493Z,97631.25
2018-12-16T09:55:43.987Z,97627.66
2018-12-16T09:58:18.935Z,97629.59
2018-12-16T10:01:01.894Z,97624.06
2018-12-16T10:03:38.773Z,97620.52
2018-12-16T10:06:17.498Z,97619.08
2018-12-16T10:08:51.502Z,97626.70
2018-12-16T10:11:25.870Z,97624.75
2018-12-16T10:13:59.210Z,97619.23
2018-12-16T10:16:33.203Z,97612.82
2018-12-16T10:19:06.736Z,97606.93
2018-12-16T10:21:39.476Z,97598.80
2018-12-16T10:24:11.315Z,97604.23
2018-12-16T10:26:43.121Z,97602.17
2018-12-16T10:29:14.508Z,97599.58
2018-12-16T10:31:45.971Z,97594.28
2018-12-16T10:34:17.616Z,97594.45
2018-12-16T10:36:49.603Z,97594.84
2018-12-16T10:39:21.167Z,97587.24
2018-12-16T10:41:52.573Z,97583.61
2018-12-16T10:44:24.164Z,97577.85
2018-12-16T10:46:56.719Z,97583.25
2018-12-16T10:49:29.429Z,97582.20
2018-12-16T10:52:00.876Z,97578.38
2018-12-16T10:54:32.306Z,97581.38
2018-12-16T10:57:03.795Z,97592.81
2018-12-16T10:59:35.208Z,97592.95
2018-12-16T11:02:06.801Z,97584.62
2018-12-16T11:04:38.067Z,97561.49
2018-12-16T11:07:10.232Z,97566.41
2018-12-16T11:09:41.592Z,97556.94
2018-12-16T11:12:13.221Z,97564.27
2018-12-16T11:14:44.960Z,97560.04
2018-12-16T11:17:19.620Z,97560.12
2018-12-16T11:19:55.260Z,97560.91
2018-12-16T11:22:28.187Z,97567.95
2018-12-16T11:25:05.635Z,97562.75
2018-12-16T11:27:35.841Z,97570.95
2018-12-16T11:30:16.280Z,97566.40
2018-12-16T11:32:48.487Z,97563.90
2018-12-16T11:35:20.033Z,97562.53
2018-12-16T11:37:51.514Z,97559.52
2018-12-16T11:40:31.200Z,97565.95
2018-12-16T11:43:10.150Z,97560.48
2018-12-16T11:45:44.798Z,97563.22
2018-12-16T11:48:19.322Z,97554.87
2018-12-16T11:50:53.935Z,97557.26
2018-12-16T11:53:25.761Z,97560.73
2018-12-16T11:55:57.676Z,97556.42
2018-12-16T11:58:29.502Z,97556.65
2018-12-16T12:01:01.325Z,97551.10
2018-12-16T12:03:33.021Z,97554.78
2018-12-16T12:06:05.412Z,97552.89
2018-12-16T12:08:37.084Z,97564.36
2018-12-16T12:11:08.657Z,97562.64
2018-12-16T12:13:40.180Z,97562.70
2018-12-16T12:16:11.829Z,97562.03
2018-12-16T12:18:43.272Z,97554.91
2018-12-16T12:21:16.124Z,97543.12
2018-12-16T12:23:48.136Z,97545.85
2018-12-16T12:26:21.888Z,97548.25
2018-12-16T12:28:53.449Z,97547.72
2018-12-16T12:31:26.703Z,97555.28
2018-12-16T12:34:04.341Z,97552.83
2018-12-16T12:36:40.371Z,97550.47
2018-12-16T12:39:12.517Z,97554.06
2018-12-16T12:41:52.588Z,97553.04
2018-12-16T12:44:24.641Z,97542.45
2018-12-16T12:46:56.168Z,97538.50
2018-12-16T12:49:27.819Z,97539.77
2018-12-16T12:51:59.500Z,97545.19
2018-12-16T12:54:30.905Z,97541.91
2018-12-16T12:57:02.204Z,97547.01
2018-12-16T12:59:33.832Z,97543.24
2018-12-16T13:02:05.224Z,97547.02
2018-12-16T13:04:36.647Z,97548.40
2018-12-16T13:07:08.419Z,97546.08
2018-12-16T13:09:40.047Z,97545.61
2018-12-16T13:12:11.794Z,97546.64
2018-12-16T13:14:43.444Z,97543.63
2018-12-16T13:17:15.038Z,97546.35
2018-12-16T13:19:46.635Z,97548.78
2018-12-16T13:22:18.143Z,97542.80
2018-12-16T13:25:06.059Z,97546.13
2018-12-16T13:27:37.806Z,97549.56
2018-12-16T13:30:09.811Z,97547.56
2018-12-16T13:32:41.249Z,97552.72
2018-12-16T13:35:13.446Z,97553.86
2018-12-16T13:37:44.832Z,97551.97
2018-12-16T13:40:16.534Z,97560.71
2018-12-16T13:42:48.522Z,97554.81
2018-12-16T13:45:21.077Z,97549.51
2018-12-16T13:47:52.676Z,97545.34
2018-12-16T13:50:24.184Z,97552.20
2018-12-16T13:52:55.805Z,97555.31
2018-12-16T13:55:28.649Z,97557.50
2018-12-16T13:58:00.499Z,97561.72
2018-12-16T14:00:31.938Z,97564.42
2018-12-16T14:03:03.221Z,97569.82
2018-12-16T14:05:34.836Z,97572.98
2018-12-16T14:08:09.132Z,97575.91
2018-12-16T14:10:41.126Z,97583.11
2018-12-16T14:13:12.772Z,97581.30
2018-12-16T14:15:44.180Z,97585.57
2018-12-16T14:18:15.873Z,97578.11
2018-12-16T14:20:47.286Z,97578.14
2018-12-16T14:23:19.401Z,97582.80
2018-12-16T14:25:52.357Z,97587.02
2018-12-16T14:28:24.169Z,97591.45
2018-12-16T14:30:56.746Z,97592.22
2018-12-16T14:33:39.545Z,97588.16
2018-12-16T14:36:11.612Z,97592.61
2018-12-16T14:38:43.469Z,97597.95
2018-12-16T14:41:15.228Z,97605.14
2018-12-16T14:43:46.977Z,97605.98
2018-12-16T14:46:18.734Z,97604.20
2018-12-16T14:48:50.616Z,97612.77
2018-12-16T14:51:22.380Z,97615.33
2018-12-16T14:53:54.355Z,97617.52
2018-12-16T14:56:26.332Z,97617.22
2018-12-16T14:58:57.841Z,97611.80
2018-12-16T15:01:29.923Z,97612.01
2018-12-16T15:04:01.952Z,97612.05
2018-12-16T15:06:33.737Z,97620.61
2018-12-16T15:09:09.709Z,97616.23
2018-12-16T15:11:41.910Z,97611.63
2018-12-16T15:14:14.140Z,97610.80
2018-12-16T15:16:47.072Z,97611.69
2018-12-16T15:19:18.677Z,97619.66
2018-12-16T15:21:50.759Z,97622.47
2018-12-16T15:24:22.224Z,97612.09
2018-12-16T15:26:53.823Z,97624.52
2018-12-16T15:29:25.249Z,97620.06
2018-12-16T15:31:56.832Z,97623.30
2018-12-16T15:34:28.385Z,97627.58
2018-12-16T15:36:59.930Z,97629.57
2018-12-16T15:39:31.448Z,97634.55
2018-12-16T15:42:03.051Z,97638.60
2018-12-16T15:44:34.656Z,97654.51
2018-12-16T15:47:06.256Z,97658.34
2018-12-16T15:49:37.872Z,97656.77
2018-12-16T15:52:09.480Z,97651.34
2018-12-16T15:54:41.026Z,97654.03
2018-12-16T15:57:12.458Z,97650.98
2018-12-16T15:59:44.227Z,97655.34
2018-12-16T16:02:15.720Z,97648.83
2018-12-16T16:04:47.403Z,97657.12
2018-12-16T16:07:18.917Z,97659.19
2018-12-16T16:09:50.513Z,97663.61
2018-12-16T16:12:22.016Z,97663.97
2018-12-16T16:14:53.617Z,97667.91
2018-12-16T16:17:25.132Z,97667.92
2018-12-16T16:19:56.774Z,97668.52
2018-12-16T16:22:28.237Z,97663.09
2018-12-16T16:24:59.764Z,97667.02
2018-12-16T16:27:31.247Z,97662.92
2018-12-16T16:30:02.846Z,97666.34
2018-12-16T16:32:34.340Z,97655.77
2018-12-16T16:35:06.433Z,97646.16
2018-12-16T16:37:38.083Z,97660.47
2018-12-16T16:40:09.831Z,97671.10
2018-12-16T16:42:41.369Z,97685.33
2018-12-16T16:45:12.837Z,97683.30
2018-12-16T16:47:44.368Z,97684.87
2018-12-16T16:50:15.837Z,97684.34
2018-12-16T16:52:47.443Z,97678.58
2018-12-16T16:55:18.945Z,97688.45
2018-12-16T16:57:50.499Z,97690.32
2018-12-16T17:00:22.062Z,97695.47
2018-12-16T17:02:53.691Z,97693.42
2018-12-16T17:14:05.630Z,97700.38
2018-12-16T17:16:37.157Z,97703.39
2018-12-16T17:19:09.142Z,97699.82
2018-12-16T17:21:41.804Z,97703.45
2018-12-16T17:24:13.308Z,97700.97
2018-12-16T17:26:45.015Z,97702.49
2018-12-16T17:29:16.526Z,97707.39
2018-12-16T17:31:48.132Z,97713.00
2018-12-16T17:34:20.051Z,97716.41
2018-12-16T17:36:51.583Z,97718.30
2018-12-16T17:39:22.996Z,97730.77
2018-12-16T17:41:54.598Z,97724.94
2018-12-16T17:44:26.107Z,97723.91
2018-12-16T17:46:57.614Z,97722.29
2018-12-16T17:49:29.219Z,97726.33
2018-12-16T17:52:00.714Z,97725.56
2018-12-16T17:54:32.108Z,97733.60
2018-12-16T17:57:03.712Z,97739.39
2018-12-16T17:59:35.072Z,97741.84
2018-12-16T18:02:07.050Z,97743.09
2018-12-16T18:04:38.736Z,97750.13
2018-12-16T18:07:10.245Z,97742.61
2018-12-16T18:09:41.847Z,97742.95
2018-12-16T18:12:13.408Z,97741.48
2018-12-16T18:14:45.058Z,97737.89
2018-12-16T18:17:16.558Z,97746.28
2018-12-16T18:19:48.097Z,97751.06
2018-12-16T18:22:19.622Z,97743.31
2018-12-16T18:24:51.207Z,97744.05
2018-12-16T18:27:22.640Z,97755.56
2018-12-16T18:32:36.311Z,97757.45
2018-12-16T18:35:07.996Z,97764.31
2018-12-16T18:37:39.896Z,97764.45
2018-12-16T18:40:11.358Z,97759.95
2018-12-16T18:42:42.872Z,97765.45
2018-12-16T18:45:14.264Z,97767.70
2018-12-16T18:47:45.747Z,97767.78
2018-12-16T18:50:17.289Z,97772.72
2018-12-16T18:52:48.759Z,97774.06
2018-12-16T18:55:20.302Z,97768.92
2018-12-16T18:57:51.760Z,97772.81
2018-12-16T19:00:23.512Z,97771.98
2018-12-16T19:02:54.872Z,97774.92
2018-12-16T19:05:26.504Z,97771.39
2018-12-16T19:07:57.932Z,97773.31
2018-12-16T19:10:29.519Z,97767.14
2018-12-16T19:13:00.876Z,97774.63
2018-12-16T19:15:32.436Z,97774.02
2018-12-16T19:18:03.847Z,97765.40
2018-12-16T19:20:35.436Z,97766.04
2018-12-16T19:23:07.441Z,97765.56
2018-12-16T19:25:38.933Z,97772.05
2018-12-16T19:28:10.223Z,97776.12
2018-12-16T19:30:41.668Z,97769.75
2018-12-16T19:33:13.055Z,97771.09
2018-12-16T19:35:48.740Z,97773.67
2018-12-16T19:38:24.718Z,97767.03
2018-12-16T19:41:03.309Z,97773.42
2018-12-16T19:43:37.996Z,97770.66
2018-12-16T19:46:09.619Z,97775.99
2018-12-16T19:48:41.152Z,97772.70
2018-12-16T19:51:12.805Z,97774.44
2018-12-16T19:53:44.360Z,97772.06
2018-12-16T19:56:15.920Z,97773.23
2018-12-16T19:58:47.673Z,97775.78
2018-12-16T20:01:19.165Z,97777.53
2018-12-16T20:03:55.381Z,97774.19
2018-12-16T20:06:31.824Z,97780.07
2018-12-16T20:09:04.129Z,97775.78
2018-12-16T20:11:35.686Z,97769.59
2018-12-16T20:14:07.339Z,97783.36
2018-12-16T20:16:38.980Z,97784.77
2018-12-16T20:19:10.477Z,97789.19
2018-12-16T20:21:42.003Z,97786.80
2018-12-16T20:24:13.555Z,97784.86
2018-12-16T20:26:45.177Z,97790.29
2018-12-16T20:29:16.681Z,97787.00
2018-12-16T20:31:48.201Z,97786.48
2018-12-16T20:34:19.691Z,97783.92
2018-12-16T20:36:51.319Z,97797.22
2018-12-16T20:39:22.896Z,97791.20
2018-12-16T20:41:54.495Z,97794.58
2018-12-16T20:44:26.107Z,97793.46
2018-12-16T20:46:57.510Z,97793.38
2018-12-16T20:49:29.223Z,97801.33
2018-12-16T20:52:00.704Z,97799.39
2018-12-16T20:54:32.353Z,97798.13
2018-12-16T20:57:03.780Z,97801.62
2018-12-16T20:59:35.381Z,97805.26
2018-12-16T21:02:06.978Z,97802.12
2018-12-16T21:04:38.379Z,97805.82
2018-12-16T21:07:09.969Z,97806.75
2018-12-16T21:09:41.386Z,97807.25
2018-12-16T21:12:17.852Z,97812.97
2018-12-16T21:14:54.464Z,97814.00
2018-12-16T21:17:30.684Z,97811.22
2018-12-16T21:20:02.197Z,97822.91
2018-12-16T21:22:33.811Z,97825.03
2018-12-16T21:25:05.841Z,97824.45
2018-12-16T21:27:37.351Z,97824.40
2018-12-16T21:30:09.293Z,97827.95
2018-12-16T21:32:40.780Z,97829.73
2018-12-16T21:35:12.432Z,97829.81
2018-12-16T21:37:43.897Z,97833.05
2018-12-16T21:40:15.298Z,97831.25
2018-12-16T21:42:46.879Z,97836.44
2018-12-16T21:45:18.434Z,97841.09
2018-12-16T21:47:49.988Z,97844.52
2018-12-16T21:50:21.544Z,97841.20
2018-12-16T21:52:53.098Z,97836.22
2018-12-16T21:55:24.531Z,97837.14
2018-12-16T21:57:56.101Z,97828.94
2018-12-16T22:00:27.533Z,97831.93
2018-12-16T22:02:59.121Z,97837.85
2018-12-16T22:05:34.237Z,97835.19
2018-12-16T22:08:05.852Z,97832.44
2018-12-16T22:10:37.455Z,97828.87
2018-12-16T22:13:08.875Z,97829.11
2018-12-16T22:15:40.465Z,97829.92
2018-12-16T22:18:12.072Z,97833.20
2018-12-16T22:20:43.584Z,97834.00
2018-12-16T22:23:15.185Z,97831.47
2018-12-16T22:25:46.682Z,97831.86
2018-12-16T22:28:18.233Z,97833.04
2018-12-16T22:30:49.695Z,97835.58
2018-12-16T22:33:21.333Z,97838.78
2018-12-16T22:35:52.812Z,97836.41
2018-12-16T22:38:24.215Z,97841.58
2018-12-16T22:40:55.790Z,97839.61
2018-12-16T22:43:27.211Z,97839.56
2018-12-16T22:45:58.804Z,97836.08
2018-12-16T22:48:30.417Z,97835.01
2018-12-16T22:51:01.914Z,97836.21
2018-12-16T22:53:33.528Z,97839.91
2018-12-16T22:56:05.055Z,97843.52
2018-12-16T22:58:36.432Z,97835.58
2018-12-16T23:01:13.413Z,97836.84
2018-12-16T23:03:44.929Z,97838.18
2018-12-16T23:06:16.326Z,97839.75
2018-12-16T23:08:47.902Z,97841.52
2018-12-16T23:11:19.563Z,97844.55
2018-12-16T23:13:51.121Z,97842.92
2018-12-16T23:16:22.667Z,97839.91
2018-12-16T23:18:54.389Z,97843.26
2018-12-16T23:21:26.828Z,97842.39
2018-12-16T23:23:58.320Z,97846.56
2018-12-16T23:26:29.817Z,97847.44
2018-12-16T23:29:01.400Z,97843.33
2018-12-16T23:31:32.929Z,97847.09
2018-12-16T23:34:04.476Z,97845.53
2018-12-16T23:36:35.926Z,97846.66
2018-12-16T23:39:08.308Z,97845.08
2018-12-16T23:41:39.855Z,97851.58
2018-12-16T23:44:11.313Z,97848.08
2018-12-16T23:46:42.926Z,97845.37
2018-12-16T23:49:14.418Z,97851.05
2018-12-16T23:51:46.001Z,97840.20
2018-12-16T23:54:17.425Z,97846.11
2018-12-16T23:56:49.136Z,97847.81
2018-12-16T23:59:20.740Z,97848.91
